Time;durP1;ratioP1;P1;durP2;ratioP2;P2;SDS_P1;SDS_P2;PMS_P1;PMS_P2;Temp;Humidity;BMP_temperature;BMP_pressure;BME280_temperature;BME280_humidity;BME280_pressure;Samples;Min_cycle;Max_cycle;Signal;HPM_P1;HPM_P2
2023/12/16 00:00:45;;;;;;;6.85;4.13;;;5.80;81.80;;;;;;5095382;28;20173;-90
2023/12/16 00:03:14;;;;;;;5.55;3.67;;;5.80;82.00;;;;;;5094899;28;20193;-88
2023/12/16 00:05:47;;;;;;;9.75;3.92;;;5.80;81.50;;;;;;5094877;28;20230;-90
2023/12/16 00:08:13;;;;;;;6.22;4.07;;;5.80;81.10;;;;;;5095486;28;20185;-90
2023/12/16 00:10:42;;;;;;;6.45;3.20;;;5.80;81.50;;;;;;5095020;28;20185;-90
2023/12/16 00:13:15;;;;;;;7.68;4.15;;;5.80;81.60;;;;;;5095064;28;20553;-91
2023/12/16 00:15:42;;;;;;;5.90;3.60;;;5.80;82.00;;;;;;5094815;28;20285;-90
2023/12/16 00:18:11;;;;;;;5.47;3.60;;;5.80;82.30;;;;;;5095005;28;20249;-91
2023/12/16 00:20:41;;;;;;;5.22;3.92;;;5.80;82.40;;;;;;5094877;28;20200;-91
2023/12/16 00:23:08;;;;;;;6.70;3.78;;;5.80;82.70;;;;;;5094894;28;20243;-90
2023/12/16 00:25:35;;;;;;;6.28;4.03;;;5.80;82.50;;;;;;5094471;28;20601;-89
2023/12/16 00:28:03;;;;;;;6.32;3.67;;;5.80;82.50;;;;;;5094314;28;20197;-91
2023/12/16 00:30:36;;;;;;;5.90;3.58;;;5.80;82.50;;;;;;5094823;28;20605;-91
2023/12/16 00:33:03;;;;;;;4.93;2.95;;;5.80;82.70;;;;;;5094334;28;20268;-91
2023/12/16 00:35:30;;;;;;;4.53;3.22;;;5.80;82.50;;;;;;5094239;28;20277;-90
2023/12/16 00:37:57;;;;;;;4.57;2.78;;;5.80;82.60;;;;;;5094430;28;20281;-91
2023/12/16 00:40:25;;;;;;;4.38;2.92;;;5.80;82.60;;;;;;5094765;28;20575;-91
2023/12/16 00:42:52;;;;;;;4.50;3.22;;;5.80;82.60;;;;;;5094578;28;20277;-91
2023/12/16 00:45:19;;;;;;;4.63;3.13;;;5.80;82.40;;;;;;5094086;28;20200;-91
2023/12/16 00:47:47;;;;;;;4.22;2.95;;;5.80;82.50;;;;;;5094492;28;20304;-92
2023/12/16 00:50:14;;;;;;;4.75;3.33;;;5.80;82.60;;;;;;5093712;28;20196;-92
2023/12/16 00:52:50;;;;;;;4.70;3.47;;;5.80;82.90;;;;;;5094473;28;20242;-91
2023/12/16 00:55:17;;;;;;;4.45;3.03;;;5.70;82.90;;;;;;5095071;28;20196;-91
2023/12/16 00:57:44;;;;;;;6.60;3.15;;;5.80;82.80;;;;;;5094468;28;20683;-90
2023/12/16 01:00:16;;;;;;;3.60;2.47;;;5.80;83.00;;;;;;5094263;28;20249;-90
2023/12/16 01:02:44;;;;;;;4.70;2.60;;;5.80;83.00;;;;;;5094691;28;20209;-90
2023/12/16 01:05:12;;;;;;;5.65;3.17;;;5.80;82.70;;;;;;5094585;28;20208;-90
2023/12/16 01:07:39;;;;;;;4.10;3.13;;;5.80;83.00;;;;;;5094261;28;20197;-90
2023/12/16 01:10:07;;;;;;;5.63;3.08;;;5.80;83.50;;;;;;5092883;28;20276;-89
2023/12/16 01:12:35;;;;;;;6.15;2.95;;;5.80;83.60;;;;;;5094184;28;20236;-90
2023/12/16 01:15:02;;;;;;;4.15;2.63;;;5.80;83.30;;;;;;5093480;28;20191;-89
2023/12/16 01:17:29;;;;;;;6.65;3.30;;;5.80;83.50;;;;;;5094402;28;20239;-91
2023/12/16 01:19:56;;;;;;;4.10;2.65;;;5.70;84.10;;;;;;5094296;28;20304;-90
2023/12/16 01:22:29;;;;;;;5.00;2.95;;;5.70;84.30;;;;;;5094266;28;20229;-90
2023/12/16 01:24:57;;;;;;;4.03;2.97;;;5.70;84.50;;;;;;5094326;28;20201;-89
2023/12/16 01:27:24;;;;;;;4.03;2.53;;;5.70;84.50;;;;;;5094278;28;20272;-90
2023/12/16 01:29:51;;;;;;;4.10;3.05;;;5.80;84.40;;;;;;5094257;28;20620;-89
2023/12/16 01:32:18;;;;;;;4.63;3.00;;;5.80;84.20;;;;;;5093962;28;20284;-89
2023/12/16 01:34:46;;;;;;;4.60;3.10;;;5.80;84.40;;;;;;5089463;28;20188;-91
2023/12/16 01:37:13;;;;;;;4.32;3.50;;;5.80;84.50;;;;;;5093564;28;20196;-89
2023/12/16 01:39:41;;;;;;;3.65;2.67;;;5.80;84.30;;;;;;5093993;28;20263;-90
2023/12/16 01:42:08;;;;;;;4.25;3.25;;;5.80;84.40;;;;;;5093979;28;20228;-90
2023/12/16 01:44:35;;;;;;;4.25;2.55;;;5.80;84.30;;;;;;5093815;28;20217;-90
2023/12/16 01:47:03;;;;;;;3.85;2.80;;;5.80;84.40;;;;;;5093857;28;20316;-89
2023/12/16 01:49:31;;;;;;;4.45;2.92;;;5.80;84.10;;;;;;5093965;28;20621;-90
2023/12/16 01:51:58;;;;;;;4.00;2.53;;;5.80;84.10;;;;;;5091127;28;20198;-89
2023/12/16 01:54:25;;;;;;;4.18;3.38;;;5.80;84.10;;;;;;5093313;28;20185;-88
2023/12/16 01:56:57;;;;;;;4.07;2.63;;;5.80;83.90;;;;;;5093896;28;20186;-90
2023/12/16 01:59:27;;;;;;;4.85;3.53;;;5.80;84.10;;;;;;5093950;28;20201;-91
2023/12/16 02:01:55;;;;;;;5.75;4.03;;;5.70;84.00;;;;;;5093492;28;20225;-92
2023/12/16 02:04:24;;;;;;;4.05;2.65;;;5.80;84.30;;;;;;5093426;28;20651;-92
2023/12/16 02:06:51;;;;;;;5.68;2.78;;;5.80;84.40;;;;;;5093466;28;20218;-90
2023/12/16 02:09:21;;;;;;;5.57;3.10;;;5.70;84.10;;;;;;5093784;28;20618;-91
2023/12/16 02:11:52;;;;;;;4.85;2.97;;;5.80;84.20;;;;;;5093660;28;20189;-91
2023/12/16 02:14:20;;;;;;;4.75;3.03;;;5.90;83.70;;;;;;5093480;28;20696;-91
2023/12/16 02:16:48;;;;;;;3.92;2.30;;;5.80;83.60;;;;;;5093329;28;20212;-91
2023/12/16 02:19:27;;;;;;;4.90;3.45;;;5.80;83.50;;;;;;5093260;28;20262;-88
2023/12/16 02:21:55;;;;;;;5.25;2.42;;;5.80;83.40;;;;;;5097974;28;20247;-91
2023/12/16 02:24:25;;;;;;;4.70;2.63;;;5.80;83.10;;;;;;5097418;28;20247;-91
2023/12/16 02:26:54;;;;;;;4.40;2.63;;;5.80;83.10;;;;;;5096945;28;20189;-90
2023/12/16 02:29:21;;;;;;;3.85;2.38;;;5.80;83.00;;;;;;5097676;28;20193;-90
2023/12/16 02:31:48;;;;;;;4.45;2.17;;;5.70;83.10;;;;;;5096912;28;20222;-91
2023/12/16 02:34:15;;;;;;;3.45;2.28;;;5.80;83.20;;;;;;5096756;28;20232;-91
2023/12/16 02:36:42;;;;;;;3.90;2.35;;;5.80;82.40;;;;;;5097639;28;20232;-92
2023/12/16 02:39:10;;;;;;;3.80;2.35;;;5.80;82.30;;;;;;5097462;28;20299;-89
2023/12/16 02:41:39;;;;;;;4.55;2.53;;;5.80;81.90;;;;;;5096939;28;20752;-91
2023/12/16 02:44:08;;;;;;;3.60;2.55;;;5.80;82.80;;;;;;5097086;28;20673;-91
2023/12/16 02:46:35;;;;;;;5.90;2.47;;;5.80;81.90;;;;;;5097096;28;20279;-93
2023/12/16 02:49:02;;;;;;;4.72;2.08;;;5.70;81.50;;;;;;5097067;28;20664;-92
2023/12/16 02:51:30;;;;;;;3.70;2.22;;;5.70;81.50;;;;;;5096705;28;20189;-89
2023/12/16 02:53:59;;;;;;;4.03;2.47;;;5.70;81.90;;;;;;5096375;28;20190;-92
2023/12/16 02:56:26;;;;;;;3.80;2.40;;;5.70;82.40;;;;;;5096782;28;20284;-91
2023/12/16 02:58:54;;;;;;;3.67;2.30;;;5.70;82.70;;;;;;5096322;28;20253;-90
2023/12/16 03:01:21;;;;;;;3.03;2.00;;;5.80;82.00;;;;;;5096929;28;20232;-92
2023/12/16 03:03:53;;;;;;;3.40;2.30;;;5.80;81.50;;;;;;5096977;28;20232;-92
2023/12/16 03:06:20;;;;;;;2.92;2.20;;;5.80;81.20;;;;;;5097021;28;20174;-91
2023/12/16 03:08:51;;;;;;;3.28;2.05;;;5.70;82.10;;;;;;5096875;28;20281;-90
2023/12/16 03:11:18;;;;;;;3.28;2.60;;;5.70;81.60;;;;;;5096663;28;20228;-91
2023/12/16 03:13:45;;;;;;;4.47;2.60;;;5.70;80.70;;;;;;5096310;28;20213;-89
2023/12/16 03:16:14;;;;;;;4.85;2.40;;;5.70;81.00;;;;;;5097059;28;20247;-89
2023/12/16 03:18:41;;;;;;;4.38;2.63;;;5.70;81.30;;;;;;5096805;28;20363;-89
2023/12/16 03:21:08;;;;;;;3.75;2.47;;;5.70;82.50;;;;;;5096287;28;20221;-89
2023/12/16 03:23:36;;;;;;;4.97;3.10;;;5.60;81.80;;;;;;5096599;28;20208;-87
2023/12/16 03:26:03;;;;;;;3.20;2.30;;;5.60;82.00;;;;;;5096558;28;20523;-89
2023/12/16 03:28:35;;;;;;;4.43;1.98;;;5.70;81.70;;;;;;5096171;28;20281;-89
2023/12/16 03:31:04;;;;;;;3.33;2.10;;;5.70;81.70;;;;;;5095463;28;20257;-89
2023/12/16 03:33:33;;;;;;;4.38;2.88;;;5.60;81.90;;;;;;5095618;28;20268;-88
2023/12/16 03:36:00;;;;;;;4.85;2.65;;;5.60;82.20;;;;;;5096348;28;20280;-89
2023/12/16 03:38:27;;;;;;;4.20;3.53;;;5.60;82.40;;;;;;5095982;28;20232;-88
2023/12/16 03:40:54;;;;;;;3.90;2.35;;;5.60;82.40;;;;;;5095451;28;20248;-89
2023/12/16 03:43:21;;;;;;;3.47;2.63;;;5.60;82.10;;;;;;5096357;28;20280;-89
2023/12/16 03:45:48;;;;;;;3.25;2.22;;;5.70;82.20;;;;;;5095926;28;20217;-90
2023/12/16 03:48:15;;;;;;;3.90;2.45;;;5.70;82.40;;;;;;5096189;28;20206;-92
2023/12/16 03:50:43;;;;;;;4.35;2.60;;;5.70;82.40;;;;;;5095651;28;20678;-90
2023/12/16 03:53:10;;;;;;;5.55;2.53;;;5.70;82.70;;;;;;5095620;28;20280;-90
2023/12/16 03:55:43;;;;;;;3.83;2.40;;;5.60;82.70;;;;;;5096007;28;20225;-90
2023/12/16 03:58:11;;;;;;;4.30;2.42;;;5.70;82.60;;;;;;5096021;28;20260;-89
2023/12/16 04:00:43;;;;;;;3.85;2.90;;;5.60;81.90;;;;;;5095554;28;20213;-90
2023/12/16 04:03:16;;;;;;;4.82;2.65;;;5.60;81.80;;;;;;5095926;28;20182;-90
2023/12/16 04:05:45;;;;;;;3.85;2.10;;;5.60;82.00;;;;;;5095630;28;20178;-89
2023/12/16 04:08:12;;;;;;;3.25;2.22;;;5.60;81.30;;;;;;5095774;28;20229;-89
2023/12/16 04:10:40;;;;;;;5.82;2.72;;;5.60;81.60;;;;;;5095458;28;20186;-89
2023/12/16 04:13:07;;;;;;;3.35;2.00;;;5.60;81.90;;;;;;5095629;28;20254;-88
2023/12/16 04:15:35;;;;;;;3.83;2.35;;;5.60;82.00;;;;;;5095597;28;20236;-88
2023/12/16 04:18:11;;;;;;;4.53;2.45;;;5.50;81.90;;;;;;5095572;28;20193;-89
2023/12/16 04:20:44;;;;;;;4.28;2.40;;;5.60;81.30;;;;;;5095160;28;20209;-88
2023/12/16 04:23:12;;;;;;;3.35;1.70;;;5.50;81.60;;;;;;5095558;28;20596;-91
2023/12/16 04:25:39;;;;;;;3.90;2.60;;;5.50;81.50;;;;;;5095369;28;20549;-89
2023/12/16 04:28:06;;;;;;;3.60;2.30;;;5.50;81.00;;;;;;5095417;28;20224;-87
2023/12/16 04:30:33;;;;;;;4.30;3.03;;;5.40;81.30;;;;;;5094582;28;20229;-90
2023/12/16 04:33:01;;;;;;;5.13;3.30;;;5.40;81.30;;;;;;5095272;28;20225;-90
2023/12/16 04:35:29;;;;;;;3.15;2.35;;;5.40;81.50;;;;;;5095019;28;20204;-90
2023/12/16 04:38:00;;;;;;;3.55;2.55;;;5.40;81.60;;;;;;5094852;28;20229;-90
2023/12/16 04:40:28;;;;;;;3.53;2.40;;;5.40;82.20;;;;;;5094789;28;20202;-90
2023/12/16 04:43:00;;;;;;;3.78;2.80;;;5.40;82.60;;;;;;5095041;28;20189;-90
2023/12/16 04:45:27;;;;;;;3.55;2.67;;;5.40;82.60;;;;;;5095194;28;20584;-90
2023/12/16 04:47:54;;;;;;;4.72;2.47;;;5.50;82.80;;;;;;5095043;28;20628;-90
2023/12/16 04:50:21;;;;;;;3.03;2.20;;;5.50;82.60;;;;;;5094731;28;20743;-90
2023/12/16 04:52:55;;;;;;;3.80;2.30;;;5.50;81.90;;;;;;5094427;28;20213;-90
2023/12/16 04:55:24;;;;;;;3.88;2.45;;;5.50;82.20;;;;;;5094906;28;20226;-89
2023/12/16 04:57:52;;;;;;;3.95;2.50;;;5.50;82.20;;;;;;5094835;28;20601;-90
2023/12/16 05:00:20;;;;;;;3.60;2.10;;;5.40;82.20;;;;;;5094161;28;20699;-91
2023/12/16 05:02:47;;;;;;;3.25;1.95;;;5.40;82.10;;;;;;5094395;28;20231;-89
2023/12/16 05:05:15;;;;;;;3.78;2.42;;;5.40;82.40;;;;;;5094624;28;20229;-90
2023/12/16 05:07:43;;;;;;;3.22;2.10;;;5.30;82.60;;;;;;5094301;28;20723;-89
2023/12/16 05:10:35;;;;;;;3.33;2.20;;;5.40;83.20;;;;;;5094425;28;20228;-89
2023/12/16 05:13:03;;;;;;;3.58;2.03;;;5.40;83.20;;;;;;5094546;28;20252;-88
2023/12/16 05:15:30;;;;;;;3.60;2.05;;;5.40;83.20;;;;;;5094442;28;20189;-90
2023/12/16 05:17:57;;;;;;;4.93;2.45;;;5.50;82.30;;;;;;5094155;28;20232;-90
2023/12/16 05:20:32;;;;;;;3.42;2.08;;;5.50;82.30;;;;;;5094015;28;20297;-91
2023/12/16 05:23:00;;;;;;;4.20;2.20;;;5.50;82.40;;;;;;5094566;28;20177;-89
2023/12/16 05:25:28;;;;;;;4.82;2.80;;;5.50;82.40;;;;;;5094144;28;20231;-89
2023/12/16 05:27:57;;;;;;;3.78;2.40;;;5.50;82.60;;;;;;5094284;28;20193;-89
2023/12/16 05:30:26;;;;;;;3.50;2.22;;;5.50;82.70;;;;;;5094337;28;20616;-88
2023/12/16 05:33:08;;;;;;;2.83;1.90;;;5.50;82.80;;;;;;5093901;28;20644;-88
2023/12/16 05:35:37;;;;;;;3.38;2.03;;;5.50;82.30;;;;;;5093466;28;20170;-89
2023/12/16 05:38:05;;;;;;;3.50;2.13;;;5.50;82.00;;;;;;5094079;28;20272;-88
2023/12/16 05:40:33;;;;;;;3.53;2.20;;;5.50;81.80;;;;;;5093610;28;20296;-89
2023/12/16 05:43:02;;;;;;;3.00;1.90;;;5.50;81.80;;;;;;5093999;28;20189;-88
2023/12/16 05:45:31;;;;;;;3.40;2.47;;;5.50;81.50;;;;;;5093676;28;20268;-90
2023/12/16 05:48:00;;;;;;;4.25;2.10;;;5.50;81.10;;;;;;5093654;28;20681;-89
2023/12/16 05:50:27;;;;;;;2.80;1.80;;;5.40;80.80;;;;;;5093667;28;20189;-89
2023/12/16 05:52:54;;;;;;;4.43;2.10;;;5.40;80.70;;;;;;5093281;28;20692;-89
2023/12/16 05:55:21;;;;;;;3.90;2.42;;;5.30;80.20;;;;;;5092477;28;20578;-89
2023/12/16 05:57:53;;;;;;;3.58;1.83;;;5.30;80.10;;;;;;5093976;28;20561;-89
2023/12/16 06:00:22;;;;;;;3.03;1.80;;;5.30;80.00;;;;;;5093842;28;20296;-90
2023/12/16 06:02:54;;;;;;;2.55;1.83;;;5.30;80.10;;;;;;5093810;28;20552;-91
2023/12/16 06:05:22;;;;;;;3.40;1.98;;;5.30;80.60;;;;;;5093204;28;20182;-91
2023/12/16 06:07:52;;;;;;;4.22;2.10;;;5.40;80.90;;;;;;5093664;28;20284;-92
2023/12/16 06:10:19;;;;;;;3.97;1.70;;;5.40;80.90;;;;;;5094566;28;20227;-91
2023/12/16 06:12:52;;;;;;;7.32;2.42;;;5.40;80.80;;;;;;5093423;28;20643;-90
2023/12/16 06:15:19;;;;;;;7.07;4.28;;;5.50;80.80;;;;;;5093654;28;20204;-93
2023/12/16 06:17:51;;;;;;;7.30;3.92;;;5.50;80.90;;;;;;5093721;28;20193;-91
2023/12/16 06:20:23;;;;;;;7.07;4.05;;;5.50;81.00;;;;;;5093625;28;20300;-91
2023/12/16 06:22:50;;;;;;;8.27;4.30;;;5.50;81.30;;;;;;5093641;28;20188;-92
2023/12/16 06:25:17;;;;;;;5.70;3.30;;;5.50;81.50;;;;;;5092471;28;20595;-91
2023/12/16 06:27:44;;;;;;;4.18;2.60;;;5.40;82.20;;;;;;5092289;28;20221;-91
2023/12/16 06:30:13;;;;;;;5.40;3.35;;;5.30;82.90;;;;;;5077962;28;20276;-90
2023/12/16 06:32:40;;;;;;;5.20;2.42;;;5.30;82.90;;;;;;5093598;28;20272;-92
2023/12/16 06:35:10;;;;;;;2.97;2.45;;;5.30;82.70;;;;;;5093517;28;20535;-92
2023/12/16 06:37:38;;;;;;;5.10;3.03;;;5.20;82.90;;;;;;5093491;28;20221;-90
2023/12/16 06:40:10;;;;;;;3.50;2.35;;;5.00;83.50;;;;;;5093214;28;20263;-89
2023/12/16 06:42:39;;;;;;;3.80;1.92;;;5.00;84.80;;;;;;5093192;28;20620;-91
2023/12/16 06:45:07;;;;;;;4.15;2.17;;;4.90;84.30;;;;;;5093394;28;20190;-90
2023/12/16 06:47:37;;;;;;;5.07;2.80;;;4.90;84.30;;;;;;5092858;28;20228;-89
2023/12/16 06:50:11;;;;;;;5.55;3.00;;;4.80;83.90;;;;;;5093077;28;20213;-89
2023/12/16 06:52:41;;;;;;;7.13;3.53;;;4.80;84.40;;;;;;5093294;28;20217;-88
2023/12/16 06:55:09;;;;;;;4.40;3.05;;;4.80;84.70;;;;;;5093426;28;20186;-88
2023/12/16 06:57:36;;;;;;;4.90;3.03;;;4.80;84.60;;;;;;5093279;28;20293;-89
2023/12/16 07:00:03;;;;;;;4.15;2.72;;;4.70;84.30;;;;;;5092502;28;20268;-89
2023/12/16 07:02:30;;;;;;;4.95;2.92;;;4.70;84.80;;;;;;5093310;28;20189;-90
2023/12/16 07:04:57;;;;;;;6.57;3.88;;;4.70;85.00;;;;;;5093017;28;20232;-90
2023/12/16 07:07:28;;;;;;;7.13;3.50;;;4.70;85.10;;;;;;5094717;28;20189;-91
2023/12/16 07:09:55;;;;;;;5.00;3.42;;;4.60;85.00;;;;;;5096236;28;20181;-90
2023/12/16 07:12:27;;;;;;;4.53;2.90;;;4.60;85.40;;;;;;5096599;28;20254;-91
2023/12/16 07:15:03;;;;;;;4.53;2.60;;;4.70;85.50;;;;;;5096350;28;20266;-91
2023/12/16 07:17:31;;;;;;;2.90;2.15;;;4.70;85.90;;;;;;5096622;28;20307;-91
2023/12/16 07:19:58;;;;;;;4.50;2.42;;;4.70;85.00;;;;;;5096021;28;20185;-91
2023/12/16 07:22:27;;;;;;;2.88;1.77;;;4.80;84.80;;;;;;5096415;28;20228;-91
2023/12/16 07:24:54;;;;;;;3.55;2.20;;;4.90;84.30;;;;;;5096428;28;20197;-90
2023/12/16 07:27:22;;;;;;;4.57;2.40;;;4.80;83.80;;;;;;5096392;28;20244;-90
2023/12/16 07:29:50;;;;;;;4.05;2.53;;;4.80;83.90;;;;;;5096210;28;20200;-91
2023/12/16 07:32:17;;;;;;;3.45;2.15;;;4.90;83.60;;;;;;5095899;28;20247;-90
2023/12/16 07:34:44;;;;;;;2.88;2.00;;;5.10;83.70;;;;;;5096323;28;20598;-90
2023/12/16 07:37:28;;;;;;;3.42;2.22;;;5.10;83.00;;;;;;5095924;28;20307;-90
2023/12/16 07:39:55;;;;;;;4.97;3.53;;;5.00;82.10;;;;;;5095700;28;20585;-90
2023/12/16 07:42:26;;;;;;;5.88;4.35;;;4.90;81.80;;;;;;5095444;28;20640;-92
2023/12/16 07:44:53;;;;;;;6.00;2.90;;;4.80;82.40;;;;;;5096083;28;20209;-91
2023/12/16 07:47:21;;;;;;;5.63;2.92;;;4.70;82.80;;;;;;5096184;28;20271;-91
2023/12/16 07:49:48;;;;;;;3.83;2.65;;;4.70;83.00;;;;;;5093697;28;20190;-92
2023/12/16 07:52:16;;;;;;;4.25;2.70;;;4.70;83.20;;;;;;5094703;28;20213;-93
2023/12/16 07:54:46;;;;;;;3.67;2.15;;;4.70;83.30;;;;;;5095326;28;20220;-91
2023/12/16 07:57:14;;;;;;;3.35;2.58;;;4.70;83.20;;;;;;5096791;28;20247;-94
2023/12/16 07:59:41;;;;;;;3.85;2.38;;;4.80;84.40;;;;;;5098649;28;20220;-94
2023/12/16 08:02:09;;;;;;;3.88;2.28;;;5.00;86.00;;;;;;5094547;28;20297;-94
2023/12/16 08:04:36;;;;;;;6.40;2.10;;;5.10;85.70;;;;;;5095953;28;20197;-93
2023/12/16 08:07:03;;;;;;;3.40;2.40;;;5.30;85.60;;;;;;5098668;28;20219;-95
2023/12/16 08:09:31;;;;;;;4.20;3.28;;;5.40;83.60;;;;;;5096893;28;20307;-94
2023/12/16 08:11:59;;;;;;;6.30;3.65;;;5.50;82.30;;;;;;5096712;28;20185;-94
2023/12/16 08:14:26;;;;;;;6.10;3.30;;;5.60;81.40;;;;;;5096609;28;20220;-94
2023/12/16 08:16:53;;;;;;;7.00;3.15;;;5.70;80.50;;;;;;5095222;28;20217;-95
2023/12/16 08:19:20;;;;;;;4.95;3.45;;;5.70;80.60;;;;;;5094936;28;20225;-94
2023/12/16 08:21:52;;;;;;;5.70;3.83;;;5.80;80.50;;;;;;5095420;28;20259;-93
2023/12/16 08:24:19;;;;;;;6.45;4.57;;;5.90;80.00;;;;;;5093550;28;20205;-95
2023/12/16 08:26:49;;;;;;;9.10;4.60;;;6.00;79.60;;;;;;5093773;28;20682;-92
2023/12/16 08:29:18;;;;;;;6.13;3.50;;;6.20;79.20;;;;;;5094163;28;20188;-94
2023/12/16 08:31:45;;;;;;;5.00;3.70;;;6.40;78.00;;;;;;5094311;28;20243;-94
2023/12/16 08:34:12;;;;;;;3.53;2.40;;;6.70;77.40;;;;;;5073760;28;20240;-94
2023/12/16 08:36:39;;;;;;;7.80;2.35;;;7.00;76.70;;;;;;5073810;28;20190;-94
2023/12/16 08:39:07;;;;;;;4.53;3.13;;;7.30;75.90;;;;;;5073727;28;20281;-92
2023/12/16 08:41:34;;;;;;;3.97;2.50;;;7.40;75.00;;;;;;5082828;28;20239;-95
2023/12/16 08:44:03;;;;;;;4.03;2.75;;;7.70;74.30;;;;;;5094242;28;20233;-94
2023/12/16 08:46:31;;;;;;;4.60;2.65;;;8.00;73.30;;;;;;5093951;28;20229;-92
2023/12/16 08:49:03;;;;;;;6.63;5.57;;;8.30;71.40;;;;;;5093970;28;20280;-93
2023/12/16 08:51:30;;;;;;;4.60;3.40;;;8.60;69.90;;;;;;5094286;28;20559;-93
2023/12/16 08:53:56;;;;;;;3.58;2.55;;;8.90;69.70;;;;;;5093307;28;20213;-93
2023/12/16 08:56:23;;;;;;;5.80;3.00;;;9.00;67.50;;;;;;5093469;28;20655;-90
2023/12/16 08:58:51;;;;;;;3.67;2.75;;;8.90;66.60;;;;;;5095306;28;20192;-94
2023/12/16 09:01:18;;;;;;;5.10;1.92;;;8.60;66.50;;;;;;5090148;28;20340;-93
2023/12/16 09:03:51;;;;;;;4.45;2.60;;;8.30;64.90;;;;;;5093949;28;20189;-94
2023/12/16 09:06:20;;;;;;;4.72;2.47;;;8.00;65.70;;;;;;5093458;28;20193;-91
2023/12/16 09:08:47;;;;;;;3.30;2.50;;;8.20;67.30;;;;;;5093650;28;20634;-93
2023/12/16 09:11:16;;;;;;;2.85;2.05;;;8.60;68.60;;;;;;5093695;28;20288;-90
2023/12/16 09:13:43;;;;;;;3.50;2.08;;;9.00;68.00;;;;;;5093416;28;20185;-91
2023/12/16 09:16:10;;;;;;;3.00;1.75;;;9.30;66.70;;;;;;5093037;28;20288;-92
2023/12/16 09:18:37;;;;;;;4.63;2.67;;;9.60;65.10;;;;;;5092994;28;20554;-93
2023/12/16 09:21:06;;;;;;;4.22;2.58;;;9.90;62.00;;;;;;5093349;28;20304;-90
2023/12/16 09:23:35;;;;;;;3.53;1.90;;;10.00;60.30;;;;;;5093206;28;20225;-84
2023/12/16 09:26:01;;;;;;;4.40;2.70;;;10.40;60.40;;;;;;5093380;28;20192;-91
2023/12/16 09:28:28;;;;;;;4.40;2.20;;;10.70;58.90;;;;;;5093102;28;20192;-89
2023/12/16 09:30:55;;;;;;;2.35;1.60;;;11.00;57.90;;;;;;5091994;28;20279;-90
2023/12/16 09:33:22;;;;;;;2.72;1.80;;;11.30;56.40;;;;;;5093080;28;20284;-89
2023/12/16 09:35:49;;;;;;;2.90;1.70;;;11.60;55.70;;;;;;5093191;28;20200;-90
2023/12/16 09:38:17;;;;;;;8.05;2.05;;;11.90;54.00;;;;;;5093125;28;20795;-90
2023/12/16 09:40:44;;;;;;;4.83;2.10;;;12.10;53.30;;;;;;5092928;28;20268;-89
2023/12/16 09:43:17;;;;;;;2.40;1.40;;;12.30;52.90;;;;;;5092717;28;20933;-88
2023/12/16 09:45:47;;;;;;;2.53;1.33;;;12.40;50.80;;;;;;5092971;28;20423;-89
2023/12/16 09:48:17;;;;;;;3.63;1.83;;;12.60;51.30;;;;;;5092480;28;20422;-90
2023/12/16 09:50:45;;;;;;;2.93;1.57;;;12.90;49.90;;;;;;5093051;28;20427;-90
2023/12/16 09:53:12;;;;;;;4.97;1.67;;;13.10;50.00;;;;;;5092783;28;20523;-91
2023/12/16 09:55:41;;;;;;;4.23;2.07;;;13.10;48.60;;;;;;5091365;28;20524;-89
2023/12/16 09:58:11;;;;;;;2.90;1.93;;;13.30;48.90;;;;;;5093098;28;20768;-91
2023/12/16 10:00:45;;;;;;;3.17;1.73;;;13.40;47.20;;;;;;5092498;28;20889;-91
2023/12/16 10:03:13;;;;;;;3.30;1.60;;;13.50;45.40;;;;;;5092775;28;20913;-91
2023/12/16 10:05:44;;;;;;;2.83;2.00;;;13.50;45.50;;;;;;5092949;28;20462;-90
2023/12/16 10:08:12;;;;;;;2.83;1.67;;;13.70;46.10;;;;;;5092292;28;20416;-90
2023/12/16 10:10:39;;;;;;;3.77;1.00;;;13.90;46.60;;;;;;5092685;28;20431;-91
2023/12/16 10:13:07;;;;;;;2.90;2.00;;;14.10;45.70;;;;;;5092279;28;20458;-92
2023/12/16 10:15:40;;;;;;;2.73;1.23;;;14.30;44.70;;;;;;5092995;28;20530;-92
2023/12/16 10:18:07;;;;;;;3.33;1.30;;;14.40;44.00;;;;;;5093105;28;20423;-88
2023/12/16 10:20:34;;;;;;;3.00;1.30;;;14.30;43.30;;;;;;5092603;28;20440;-92
2023/12/16 10:23:02;;;;;;;2.63;1.70;;;14.40;43.30;;;;;;5092340;28;20988;-89
2023/12/16 10:25:32;;;;;;;2.40;1.10;;;14.50;42.20;;;;;;5092505;28;20470;-90
2023/12/16 10:28:02;;;;;;;2.87;1.50;;;14.50;42.00;;;;;;5092542;28;20431;-91
2023/12/16 10:30:31;;;;;;;3.10;1.70;;;14.50;41.80;;;;;;5092351;28;20863;-89
2023/12/16 10:33:03;;;;;;;2.80;1.40;;;14.50;41.40;;;;;;5072364;28;20468;-93
2023/12/16 10:35:30;;;;;;;2.90;1.80;;;14.30;41.60;;;;;;5075819;28;20457;-91
2023/12/16 10:37:57;;;;;;;3.07;1.60;;;14.40;41.60;;;;;;5092591;28;20859;-90
2023/12/16 10:40:29;;;;;;;3.43;1.80;;;14.70;42.50;;;;;;5092509;28;20427;-91
2023/12/16 10:42:56;;;;;;;2.57;1.20;;;14.80;40.60;;;;;;5076265;28;20552;-90
2023/12/16 10:45:27;;;;;;;2.43;1.50;;;15.20;42.20;;;;;;5076353;28;20518;-91
2023/12/16 10:47:58;;;;;;;4.77;1.50;;;16.00;40.90;;;;;;5082443;28;20486;-92
2023/12/16 10:50:27;;;;;;;3.20;1.30;;;16.60;40.20;;;;;;5096254;28;20612;-96
2023/12/16 10:53:08;;;;;;;2.97;1.60;;;16.60;38.60;;;;;;5098088;28;20453;-94
2023/12/16 10:55:44;;;;;;;2.63;1.20;;;16.30;37.70;;;;;;5104962;28;20434;-95
2023/12/16 10:58:21;;;;;;;3.23;1.60;;;15.70;37.60;;;;;;5113747;28;20457;-87
2023/12/16 11:00:51;;;;;;;3.67;2.40;;;15.20;39.60;;;;;;5113716;28;20423;-96
2023/12/16 11:03:25;;;;;;;3.17;1.57;;;14.90;40.10;;;;;;5109629;28;20505;-96
2023/12/16 11:06:01;;;;;;;3.03;1.40;;;14.50;39.40;;;;;;5106725;28;20468;-96
2023/12/16 11:08:28;;;;;;;2.30;1.20;;;14.10;40.70;;;;;;5095751;28;20522;-96
2023/12/16 11:10:56;;;;;;;3.00;1.40;;;13.80;41.50;;;;;;5104832;28;20470;-95
2023/12/16 11:13:28;;;;;;;2.77;1.87;;;13.60;41.40;;;;;;5103353;28;20435;-96
2023/12/16 11:16:01;;;;;;;2.47;1.50;;;13.30;41.30;;;;;;5098269;28;20419;-96
2023/12/16 11:18:31;;;;;;;4.20;1.90;;;13.00;42.10;;;;;;5096553;28;20423;-95
2023/12/16 11:21:04;;;;;;;4.83;1.70;;;12.80;42.60;;;;;;5096407;28;20968;-96
2023/12/16 11:23:31;;;;;;;2.80;1.50;;;12.50;43.40;;;;;;5095602;28;20458;-94
2023/12/16 11:26:02;;;;;;;3.53;1.80;;;12.30;43.30;;;;;;5096871;28;20471;-95
2023/12/16 11:28:30;;;;;;;3.07;1.53;;;12.20;44.10;;;;;;5097200;28;20435;-95
2023/12/16 11:30:58;;;;;;;2.80;1.50;;;12.00;43.50;;;;;;5096249;28;20485;-95
2023/12/16 11:33:47;;;;;;;2.20;1.13;;;11.90;44.40;;;;;;5100917;28;20929;-95
2023/12/16 11:36:15;;;;;;;2.80;1.57;;;11.80;44.10;;;;;;5099578;28;20447;-93
2023/12/16 11:38:43;;;;;;;4.10;1.93;;;11.80;44.70;;;;;;5103052;28;20463;-96
2023/12/16 11:41:12;;;;;;;2.70;1.47;;;12.00;45.30;;;;;;5095874;28;20442;-92
2023/12/16 11:43:52;;;;;;;2.40;1.20;;;12.40;45.30;;;;;;5093630;28;20430;-89
2023/12/16 11:46:39;;;;;;;2.93;1.37;;;12.90;44.60;;;;;;5094955;28;20536;-89
2023/12/16 11:49:10;;;;;;;66.07;33.73;;;13.50;44.10;;;;;;5095442;28;20506;-88
2023/12/16 11:51:39;;;;;;;9.90;6.13;;;13.90;42.20;;;;;;5093955;28;20428;-90
2023/12/16 11:54:09;;;;;;;2.70;1.23;;;14.10;42.20;;;;;;5093558;28;20428;-84
2023/12/16 11:56:37;;;;;;;2.90;1.40;;;14.40;42.10;;;;;;5095197;28;20427;-88
2023/12/16 11:59:07;;;;;;;2.57;1.43;;;14.60;41.60;;;;;;5094960;28;20514;-91
2023/12/16 12:01:35;;;;;;;2.90;1.50;;;14.50;40.10;;;;;;5094771;28;20439;-89
2023/12/16 12:04:09;;;;;;;2.30;1.20;;;14.40;40.30;;;;;;5095185;28;20470;-91
2023/12/16 12:06:37;;;;;;;2.80;1.77;;;14.30;40.10;;;;;;5094856;28;20510;-94
2023/12/16 12:09:04;;;;;;;2.70;1.70;;;14.40;40.30;;;;;;5094909;28;20435;-91
2023/12/16 12:11:31;;;;;;;2.77;1.63;;;14.70;40.30;;;;;;5094694;28;20466;-92
2023/12/16 12:13:58;;;;;;;3.33;1.30;;;14.90;40.60;;;;;;5094378;28;20512;-93
2023/12/16 12:16:28;;;;;;;2.70;1.50;;;14.90;40.30;;;;;;5094874;28;20506;-93
2023/12/16 12:18:56;;;;;;;9.33;1.80;;;14.60;39.60;;;;;;5094415;28;20444;-92
2023/12/16 12:21:24;;;;;;;3.50;1.53;;;14.30;39.70;;;;;;5098942;28;20426;-94
2023/12/16 12:23:51;;;;;;;2.77;1.30;;;13.80;39.80;;;;;;5115459;27;20537;-91
2023/12/16 12:26:21;;;;;;;2.70;1.47;;;13.50;41.00;;;;;;5115223;28;20909;-94
2023/12/16 12:28:56;;;;;;;2.93;1.47;;;13.20;41.40;;;;;;5123986;28;20920;-94
2023/12/16 12:31:24;;;;;;;5.07;2.10;;;12.90;41.70;;;;;;5118026;28;20425;-95
2023/12/16 12:33:51;;;;;;;2.63;1.40;;;12.50;42.00;;;;;;5100546;28;20435;-92
2023/12/16 12:36:18;;;;;;;2.97;1.60;;;12.30;42.80;;;;;;5100506;28;20526;-94
2023/12/16 12:38:53;;;;;;;2.93;1.70;;;12.10;43.60;;;;;;5101208;28;20431;-94
2023/12/16 12:41:20;;;;;;;3.83;1.93;;;12.00;44.70;;;;;;5099574;28;20416;-94
2023/12/16 12:43:47;;;;;;;2.53;1.37;;;11.90;44.90;;;;;;5096453;28;20470;-94
2023/12/16 12:46:16;;;;;;;3.57;2.03;;;11.80;45.30;;;;;;5097698;28;20527;-95
2023/12/16 12:48:54;;;;;;;3.37;1.77;;;11.70;44.80;;;;;;5097653;28;20453;-95
2023/12/16 12:51:21;;;;;;;3.33;1.90;;;11.50;45.40;;;;;;5101876;28;20415;-94
2023/12/16 12:53:57;;;;;;;3.47;2.57;;;11.30;45.60;;;;;;5100226;28;20455;-94
2023/12/16 12:56:24;;;;;;;4.27;3.10;;;11.10;46.60;;;;;;5094761;28;20513;-95
2023/12/16 12:58:51;;;;;;;4.67;3.30;;;11.00;47.80;;;;;;5094109;28;20459;-93
2023/12/16 13:01:18;;;;;;;5.13;4.30;;;11.00;47.60;;;;;;5099238;28;20439;-93